Time;durP1;ratioP1;P1;durP2;ratioP2;P2;SDS_P1;SDS_P2;PMS_P1;PMS_P2;Temp;Humidity;BMP_temperature;BMP_pressure;BME280_temperature;BME280_humidity;BME280_pressure;Samples;Min_cycle;Max_cycle;Signal;HPM_P1;HPM_P2
2022/03/09 00:01:34;;;;;;;71.50;30.55;;;7.10;70.60;;;;;;5004510;28;20025;-61
2022/03/09 00:03:59;;;;;;;74.47;30.77;;;7.10;70.60;;;;;;5023116;28;20168;-61
2022/03/09 00:06:25;;;;;;;82.15;30.80;;;7.00;70.50;;;;;;5023062;28;20104;-60
2022/03/09 00:08:51;;;;;;;65.70;30.35;;;7.00;70.50;;;;;;5021786;28;20424;-60
2022/03/09 00:11:16;;;;;;;70.10;31.23;;;7.00;70.50;;;;;;5024202;28;20437;-60
2022/03/09 00:13:42;;;;;;;75.10;30.88;;;7.00;70.60;;;;;;5023206;28;20033;-61
2022/03/09 00:16:07;;;;;;;69.82;30.30;;;6.90;70.60;;;;;;5023081;28;20025;-60
2022/03/09 00:18:33;;;;;;;62.20;30.10;;;6.90;70.60;;;;;;5025876;28;20030;-60
2022/03/09 00:20:58;;;;;;;78.30;30.65;;;6.90;70.50;;;;;;5025766;28;20473;-61
2022/03/09 00:23:24;;;;;;;64.38;30.45;;;6.80;70.50;;;;;;5022292;28;20033;-60
2022/03/09 00:25:49;;;;;;;69.13;33.92;;;6.80;70.40;;;;;;5022951;28;20107;-60
2022/03/09 00:28:15;;;;;;;69.20;33.05;;;6.80;70.40;;;;;;5022016;28;20064;-60
2022/03/09 00:30:40;;;;;;;64.35;30.60;;;6.80;70.40;;;;;;5007780;28;20041;-60
2022/03/09 00:33:06;;;;;;;55.10;30.95;;;6.70;70.40;;;;;;5024751;28;20049;-60
2022/03/09 00:35:31;;;;;;;67.43;29.20;;;6.70;70.40;;;;;;5023632;28;20060;-59
2022/03/09 00:37:57;;;;;;;65.80;31.05;;;6.70;70.50;;;;;;5020776;28;20037;-59
2022/03/09 00:40:22;;;;;;;59.65;30.15;;;6.60;70.50;;;;;;5021549;28;20037;-61
2022/03/09 00:42:48;;;;;;;61.88;29.10;;;6.60;70.50;;;;;;5023439;28;20036;-61
2022/03/09 00:45:13;;;;;;;52.92;29.48;;;6.60;70.60;;;;;;5024637;28;20025;-60
2022/03/09 00:47:39;;;;;;;64.93;32.05;;;6.60;71.10;;;;;;5018818;28;20087;-61
2022/03/09 00:50:05;;;;;;;61.08;31.77;;;6.60;70.50;;;;;;5021798;28;20120;-60
2022/03/09 00:52:31;;;;;;;43.88;29.73;;;6.50;70.40;;;;;;5023559;28;20030;-60
2022/03/09 00:54:56;;;;;;;57.97;31.58;;;6.50;70.40;;;;;;5026585;28;20369;-60
2022/03/09 00:57:22;;;;;;;55.35;30.63;;;6.50;70.40;;;;;;5023884;28;20029;-61
2022/03/09 00:59:47;;;;;;;55.45;30.05;;;6.50;70.50;;;;;;5021111;28;20033;-59
2022/03/09 01:02:13;;;;;;;55.92;28.58;;;6.50;70.50;;;;;;5019836;28;20553;-60
2022/03/09 01:04:38;;;;;;;54.10;29.80;;;6.50;70.40;;;;;;5022345;28;20075;-60
2022/03/09 01:07:04;;;;;;;53.58;28.30;;;6.40;70.40;;;;;;5020272;28;20034;-59
2022/03/09 01:09:30;;;;;;;50.50;28.55;;;6.40;70.40;;;;;;5021933;28;20030;-60
2022/03/09 01:11:55;;;;;;;50.28;28.17;;;6.30;70.40;;;;;;5023110;28;20026;-60
2022/03/09 01:14:21;;;;;;;51.65;28.13;;;6.30;70.40;;;;;;5022068;28;20045;-60
2022/03/09 01:16:46;;;;;;;52.35;29.27;;;6.30;70.40;;;;;;5020050;28;20036;-61
2022/03/09 01:19:12;;;;;;;46.28;27.73;;;6.30;70.50;;;;;;5019788;28;21379;-60
2022/03/09 01:21:37;;;;;;;50.35;27.27;;;6.30;70.40;;;;;;5023110;28;20033;-60
2022/03/09 01:24:03;;;;;;;48.42;27.40;;;6.30;70.40;;;;;;5023791;28;20061;-61
2022/03/09 01:26:28;;;;;;;43.28;27.05;;;6.30;70.40;;;;;;5005052;28;20029;-61
2022/03/09 01:28:54;;;;;;;49.85;27.45;;;6.30;70.50;;;;;;5019633;28;20165;-60
2022/03/09 01:31:19;;;;;;;46.85;27.17;;;6.20;70.50;;;;;;5022906;28;20049;-61
2022/03/09 01:33:45;;;;;;;45.78;28.85;;;6.20;70.50;;;;;;5022349;28;20034;-60
2022/03/09 01:36:10;;;;;;;43.33;26.23;;;6.20;70.60;;;;;;5023025;28;20047;-61
2022/03/09 01:38:36;;;;;;;42.58;27.40;;;6.10;70.50;;;;;;5019491;28;20040;-61
2022/03/09 01:41:01;;;;;;;46.67;26.40;;;6.10;70.70;;;;;;5023114;28;20120;-60
2022/03/09 01:43:27;;;;;;;54.90;27.77;;;6.10;70.60;;;;;;5021932;28;20045;-60
2022/03/09 01:45:52;;;;;;;47.05;27.77;;;6.10;70.60;;;;;;5018934;28;20455;-60
2022/03/09 01:48:18;;;;;;;49.67;28.15;;;6.00;70.60;;;;;;5020168;28;20116;-60
2022/03/09 01:50:44;;;;;;;43.70;28.10;;;6.00;70.60;;;;;;5023547;28;20124;-61
2022/03/09 01:53:10;;;;;;;45.15;27.95;;;6.00;70.70;;;;;;5004232;28;20033;-61
2022/03/09 01:55:36;;;;;;;43.60;27.90;;;6.00;70.70;;;;;;5020690;28;20132;-61
2022/03/09 01:58:02;;;;;;;43.38;27.60;;;5.80;70.70;;;;;;5019561;28;20070;-61
2022/03/09 02:00:28;;;;;;;42.35;26.52;;;5.90;70.70;;;;;;5001409;28;20122;-60
2022/03/09 02:02:53;;;;;;;43.00;26.80;;;5.90;70.70;;;;;;5019437;28;20445;-60
2022/03/09 02:05:19;;;;;;;39.05;25.50;;;5.90;70.70;;;;;;4989224;28;20487;-60
2022/03/09 02:10:29;;;;;;;37.58;25.63;;;5.90;70.70;;;;;;5020316;28;20031;-60
2022/03/09 02:12:54;;;;;;;43.20;25.30;;;5.80;71.00;;;;;;5017077;28;20034;-60
2022/03/09 02:15:20;;;;;;;41.08;26.38;;;5.80;70.80;;;;;;5021599;28;20481;-60
2022/03/09 02:17:45;;;;;;;35.38;25.73;;;5.80;70.90;;;;;;5020721;28;20104;-61
2022/03/09 02:20:11;;;;;;;39.35;26.40;;;5.80;71.00;;;;;;5023259;28;20135;-60
2022/03/09 02:22:38;;;;;;;42.22;26.25;;;5.80;71.30;;;;;;5019104;28;20424;-61
2022/03/09 02:25:09;;;;;;;36.85;26.33;;;5.70;71.60;;;;;;5020330;28;20032;-60
2022/03/09 02:27:35;;;;;;;41.17;29.50;;;5.70;71.80;;;;;;5037411;28;20168;-60
2022/03/09 02:30:01;;;;;;;41.35;27.92;;;5.70;72.20;;;;;;5024227;28;20077;-60
2022/03/09 02:32:26;;;;;;;38.97;26.80;;;5.70;72.30;;;;;;5022322;28;20714;-60
2022/03/09 02:34:52;;;;;;;40.53;26.98;;;5.70;72.40;;;;;;5004449;28;21132;-60
2022/03/09 02:37:17;;;;;;;41.75;27.38;;;5.60;72.30;;;;;;5021123;28;20021;-61
2022/03/09 02:39:43;;;;;;;39.33;26.90;;;5.60;72.50;;;;;;5018509;28;20172;-60
2022/03/09 02:42:09;;;;;;;38.85;26.63;;;5.70;72.40;;;;;;5003587;28;20021;-60
2022/03/09 02:44:34;;;;;;;39.42;28.45;;;5.60;72.50;;;;;;5019587;28;20453;-60
2022/03/09 02:47:00;;;;;;;41.03;27.73;;;5.60;72.70;;;;;;5019756;28;20068;-59
2022/03/09 02:49:25;;;;;;;42.35;29.10;;;5.60;72.60;;;;;;5019479;28;20036;-59
2022/03/09 02:51:51;;;;;;;38.33;27.55;;;5.60;72.40;;;;;;5021544;28;20298;-59
2022/03/09 02:54:16;;;;;;;33.78;26.15;;;5.60;72.30;;;;;;5021650;28;20025;-60
2022/03/09 02:56:42;;;;;;;39.47;27.77;;;5.50;72.20;;;;;;5020078;28;20030;-60
2022/03/09 02:59:07;;;;;;;43.60;28.15;;;5.50;72.20;;;;;;5018865;28;20033;-60
2022/03/09 03:01:33;;;;;;;42.17;27.33;;;5.50;72.20;;;;;;5002351;28;20477;-60
2022/03/09 03:03:59;;;;;;;38.38;27.30;;;5.50;72.20;;;;;;5020036;28;20049;-61
2022/03/09 03:06:24;;;;;;;38.67;27.45;;;5.50;72.10;;;;;;5019686;28;20103;-60
2022/03/09 03:08:50;;;;;;;40.75;27.92;;;5.50;72.10;;;;;;5020789;28;20120;-60
2022/03/09 03:11:15;;;;;;;35.75;26.10;;;5.40;72.10;;;;;;5019190;28;20021;-60
2022/03/09 03:13:41;;;;;;;35.00;27.08;;;5.40;72.20;;;;;;5017714;28;20051;-60
2022/03/09 03:16:07;;;;;;;42.50;27.20;;;5.40;72.10;;;;;;5020251;28;20116;-60
2022/03/09 03:18:33;;;;;;;33.88;26.73;;;5.40;72.10;;;;;;5019680;28;20037;-61
2022/03/09 03:20:59;;;;;;;39.85;26.55;;;5.30;72.10;;;;;;5021663;28;20029;-60
2022/03/09 03:23:25;;;;;;;36.97;26.60;;;5.30;72.10;;;;;;5021997;28;20381;-60
2022/03/09 03:25:51;;;;;;;37.72;26.33;;;5.30;72.10;;;;;;5021449;28;20107;-59
2022/03/09 03:28:16;;;;;;;37.35;25.35;;;5.30;72.10;;;;;;5024448;28;20691;-61
2022/03/09 03:30:42;;;;;;;36.20;26.58;;;5.30;72.10;;;;;;5023394;28;20050;-60
2022/03/09 03:33:08;;;;;;;34.90;25.77;;;5.30;72.00;;;;;;5025345;28;20041;-60
2022/03/09 03:35:33;;;;;;;37.80;26.02;;;5.20;72.10;;;;;;5024424;28;20164;-60
2022/03/09 03:37:59;;;;;;;38.45;27.02;;;5.20;72.10;;;;;;5007169;28;20022;-60
2022/03/09 03:40:24;;;;;;;34.75;25.10;;;5.20;72.20;;;;;;5023877;28;20644;-60
2022/03/09 03:42:50;;;;;;;36.33;26.05;;;5.20;72.20;;;;;;5022557;28;20040;-61
2022/03/09 03:45:15;;;;;;;30.77;26.05;;;5.10;72.20;;;;;;5025502;28;20044;-60
2022/03/09 03:47:41;;;;;;;32.78;25.77;;;5.20;72.20;;;;;;5024981;28;20113;-60
2022/03/09 03:50:07;;;;;;;36.90;28.27;;;5.20;72.20;;;;;;5023081;28;20241;-59
2022/03/09 03:52:32;;;;;;;35.40;28.20;;;5.10;72.20;;;;;;5024825;28;20050;-59
2022/03/09 03:54:58;;;;;;;36.78;27.30;;;5.10;72.10;;;;;;5025298;28;20057;-60
2022/03/09 03:57:23;;;;;;;34.88;25.38;;;5.10;72.20;;;;;;5021961;28;20029;-60
2022/03/09 03:59:48;;;;;;;38.65;27.95;;;5.10;72.20;;;;;;5025544;28;20036;-61
2022/03/09 04:02:14;;;;;;;33.42;25.83;;;5.10;72.20;;;;;;5022614;28;20048;-60
2022/03/09 04:04:39;;;;;;;37.70;26.27;;;5.10;72.10;;;;;;5023960;28;20044;-60
2022/03/09 04:07:05;;;;;;;34.65;27.17;;;5.00;72.20;;;;;;5024219;28;20064;-60
2022/03/09 04:09:30;;;;;;;38.28;25.23;;;5.00;72.20;;;;;;4990841;28;20484;-60
2022/03/09 04:11:56;;;;;;;36.58;25.42;;;5.00;72.30;;;;;;5022243;28;20041;-60
2022/03/09 04:14:22;;;;;;;34.00;25.30;;;5.00;72.20;;;;;;5027534;28;20037;-60
2022/03/09 04:16:49;;;;;;;35.58;26.15;;;4.90;72.20;;;;;;5023275;28;20033;-60
2022/03/09 04:19:14;;;;;;;38.55;27.45;;;4.90;72.30;;;;;;5006482;28;20116;-60
2022/03/09 04:21:40;;;;;;;41.08;28.08;;;4.90;72.20;;;;;;5021813;28;20446;-59
2022/03/09 04:24:05;;;;;;;41.42;27.33;;;4.90;72.30;;;;;;5024165;28;20069;-60
2022/03/09 04:26:31;;;;;;;36.42;27.23;;;4.90;72.30;;;;;;5024739;28;20393;-60
2022/03/09 04:28:57;;;;;;;36.22;27.00;;;4.80;72.30;;;;;;5022292;28;20060;-60
2022/03/09 04:31:22;;;;;;;39.15;28.17;;;4.80;72.30;;;;;;5020496;28;20088;-60
2022/03/09 04:33:48;;;;;;;41.85;26.15;;;4.80;72.40;;;;;;5021835;28;20060;-60
2022/03/09 04:36:14;;;;;;;34.50;25.48;;;4.80;72.40;;;;;;5022946;28;20112;-60
2022/03/09 04:38:40;;;;;;;38.88;26.67;;;4.80;72.40;;;;;;5024814;28;20352;-59
2022/03/09 04:41:05;;;;;;;33.97;26.98;;;4.70;72.40;;;;;;5023741;28;20033;-60
2022/03/09 04:43:31;;;;;;;36.17;26.02;;;4.70;72.40;;;;;;5023980;28;20042;-60
2022/03/09 04:45:56;;;;;;;33.58;26.60;;;4.80;72.40;;;;;;5022043;28;20057;-59
2022/03/09 04:48:22;;;;;;;33.17;25.83;;;4.80;72.50;;;;;;5022485;28;20029;-60
2022/03/09 04:50:47;;;;;;;43.10;26.83;;;4.70;72.30;;;;;;5023345;28;20045;-60
2022/03/09 04:53:13;;;;;;;35.55;25.88;;;4.70;72.30;;;;;;5024808;28;20104;-60
2022/03/09 04:55:38;;;;;;;37.83;26.20;;;4.70;72.30;;;;;;5022860;28;20032;-60
2022/03/09 04:58:04;;;;;;;38.00;25.55;;;4.80;72.40;;;;;;5022962;28;20444;-61
2022/03/09 05:00:29;;;;;;;34.35;25.75;;;4.70;72.30;;;;;;5023466;28;20029;-60
2022/03/09 05:02:55;;;;;;;34.78;25.55;;;4.70;72.30;;;;;;5004994;28;20079;-60
2022/03/09 05:05:20;;;;;;;36.30;25.98;;;4.70;72.40;;;;;;5024210;28;20033;-60
2022/03/09 05:07:46;;;;;;;38.75;26.67;;;4.60;72.30;;;;;;5022151;28;20516;-60
2022/03/09 05:10:11;;;;;;;34.08;25.38;;;4.60;72.40;;;;;;5023483;28;20520;-60
2022/03/09 05:12:37;;;;;;;37.50;25.80;;;4.60;72.50;;;;;;5003689;28;20045;-60
2022/03/09 05:15:06;;;;;;;38.45;26.65;;;4.60;72.70;;;;;;5024258;28;20249;-59
2022/03/09 05:17:31;;;;;;;37.65;26.40;;;4.50;72.60;;;;;;5021878;28;20041;-60
2022/03/09 05:19:57;;;;;;;33.58;26.02;;;4.60;72.60;;;;;;5023386;28;20025;-60
2022/03/09 05:22:23;;;;;;;36.10;24.55;;;4.60;72.60;;;;;;5019807;28;20032;-59
2022/03/09 05:24:48;;;;;;;43.15;26.85;;;4.60;73.20;;;;;;5023044;28;20393;-60
2022/03/09 05:27:15;;;;;;;48.58;28.40;;;4.50;72.50;;;;;;5022121;28;20108;-60
2022/03/09 05:29:40;;;;;;;48.78;27.77;;;4.50;72.60;;;;;;5022329;28;20021;-59
2022/03/09 05:32:06;;;;;;;41.63;26.27;;;4.50;72.50;;;;;;5022599;28;20385;-60
2022/03/09 05:34:32;;;;;;;59.97;28.83;;;4.50;72.50;;;;;;5021319;28;20041;-59
2022/03/09 05:36:57;;;;;;;55.60;27.55;;;4.60;72.70;;;;;;5020096;28;20041;-61
2022/03/09 05:39:23;;;;;;;47.78;26.48;;;4.50;72.80;;;;;;5020290;28;20547;-60
2022/03/09 05:41:48;;;;;;;53.58;27.27;;;4.50;72.80;;;;;;5022620;28;20485;-59
2022/03/09 05:44:14;;;;;;;47.03;27.75;;;4.40;72.70;;;;;;5025701;28;20033;-60
2022/03/09 05:46:40;;;;;;;43.35;26.08;;;4.40;72.90;;;;;;5003221;28;20037;-61
2022/03/09 05:49:05;;;;;;;43.05;26.42;;;4.40;72.90;;;;;;5020696;28;20451;-60
2022/03/09 05:51:31;;;;;;;43.33;26.45;;;4.40;72.90;;;;;;5018566;28;20045;-60
2022/03/09 05:53:57;;;;;;;43.63;27.35;;;4.40;73.00;;;;;;5004714;28;20121;-60
2022/03/09 05:56:23;;;;;;;55.10;28.02;;;4.40;73.00;;;;;;5020373;28;20041;-60
2022/03/09 05:58:48;;;;;;;50.13;25.98;;;4.40;73.10;;;;;;5023275;28;20075;-60
2022/03/09 06:01:14;;;;;;;35.58;25.38;;;4.40;73.20;;;;;;5018078;28;20033;-59
2022/03/09 06:03:39;;;;;;;41.08;26.30;;;4.30;73.20;;;;;;5020623;28;20069;-60
2022/03/09 06:06:05;;;;;;;52.67;26.55;;;4.30;73.20;;;;;;5018656;28;20109;-60
2022/03/09 06:08:31;;;;;;;51.03;26.70;;;4.40;73.40;;;;;;5017895;28;20532;-60
2022/03/09 06:10:56;;;;;;;52.95;27.40;;;4.30;73.40;;;;;;5020740;28;20025;-60
2022/03/09 06:13:22;;;;;;;47.70;27.92;;;4.00;73.30;;;;;;5021397;28;20018;-60
2022/03/09 06:15:49;;;;;;;49.00;26.40;;;4.30;73.60;;;;;;5018531;28;20556;-60
2022/03/09 06:18:15;;;;;;;46.65;27.75;;;4.30;73.70;;;;;;5019179;28;20017;-61
2022/03/09 06:20:40;;;;;;;44.97;26.25;;;4.20;73.80;;;;;;5009744;28;20114;-60
2022/03/09 06:23:06;;;;;;;61.58;28.13;;;4.20;73.90;;;;;;5019240;28;20381;-59
2022/03/09 06:25:31;;;;;;;49.58;26.48;;;4.20;74.00;;;;;;5020252;28;20431;-60
2022/03/09 06:27:58;;;;;;;40.17;27.08;;;4.20;74.20;;;;;;5021267;28;20521;-60
2022/03/09 06:30:24;;;;;;;41.83;27.05;;;4.20;74.40;;;;;;5021507;28;20037;-59
2022/03/09 06:32:49;;;;;;;48.10;27.75;;;4.20;74.50;;;;;;5011303;28;20035;-60
2022/03/09 06:35:15;;;;;;;39.05;26.17;;;4.20;74.60;;;;;;5013551;28;20068;-60
2022/03/09 06:37:42;;;;;;;50.92;27.50;;;4.20;74.60;;;;;;5021732;28;20124;-59
2022/03/09 06:40:08;;;;;;;54.35;29.02;;;4.20;75.10;;;;;;5004520;28;20616;-59
2022/03/09 06:42:33;;;;;;;37.88;28.00;;;4.20;74.40;;;;;;5020729;28;20052;-61
2022/03/09 06:44:59;;;;;;;43.40;28.20;;;4.20;74.40;;;;;;5018148;28;20033;-60
2022/03/09 06:47:25;;;;;;;43.10;29.00;;;4.20;74.40;;;;;;5015262;28;20107;-59
2022/03/09 06:49:50;;;;;;;45.38;27.00;;;4.20;74.50;;;;;;5003131;28;20120;-60
2022/03/09 06:52:16;;;;;;;45.70;28.25;;;4.10;74.40;;;;;;5018105;28;20040;-60
2022/03/09 06:54:41;;;;;;;42.25;29.35;;;4.20;74.50;;;;;;4998118;28;20065;-60
2022/03/09 06:57:07;;;;;;;43.85;28.73;;;4.20;74.50;;;;;;4998664;28;20045;-59
2022/03/09 06:59:32;;;;;;;42.30;28.65;;;4.20;74.50;;;;;;5018581;28;20029;-60
2022/03/09 07:01:58;;;;;;;45.33;27.85;;;4.20;74.50;;;;;;5020989;28;20014;-61
2022/03/09 07:04:23;;;;;;;44.63;28.48;;;4.20;74.50;;;;;;5004654;28;21200;-59
2022/03/09 07:06:49;;;;;;;49.33;29.50;;;4.10;74.40;;;;;;5005827;28;20029;-59
2022/03/09 07:09:14;;;;;;;43.33;29.25;;;4.10;74.40;;;;;;5023553;28;20039;-60
2022/03/09 07:11:41;;;;;;;48.95;30.73;;;4.10;74.40;;;;;;5021294;28;20033;-60
2022/03/09 07:14:06;;;;;;;49.75;30.63;;;4.10;74.40;;;;;;5017396;28;20060;-59
2022/03/09 07:16:32;;;;;;;48.03;30.58;;;4.10;74.40;;;;;;5017807;28;20139;-60
2022/03/09 07:18:57;;;;;;;53.67;29.95;;;4.10;74.30;;;;;;5017632;28;20154;-59
2022/03/09 07:21:23;;;;;;;47.40;30.48;;;4.10;74.40;;;;;;5016848;28;20044;-60
2022/03/09 07:23:48;;;;;;;51.10;31.33;;;4.10;74.40;;;;;;5019114;28;20036;-60
2022/03/09 07:26:14;;;;;;;51.58;29.73;;;4.10;74.30;;;;;;5018512;28;20418;-60
2022/03/09 07:28:39;;;;;;;58.33;32.17;;;4.10;75.00;;;;;;5017389;28;20612;-60
2022/03/09 07:31:05;;;;;;;45.70;31.30;;;4.10;74.30;;;;;;5021614;28;20064;-59
2022/03/09 07:33:31;;;;;;;47.28;29.83;;;4.10;74.20;;;;;;5004197;28;20025;-60
2022/03/09 07:35:56;;;;;;;51.25;30.30;;;4.10;74.20;;;;;;5020697;28;20505;-59
2022/03/09 07:38:22;;;;;;;46.30;29.45;;;4.20;74.30;;;;;;5020054;28;20041;-59
2022/03/09 07:40:48;;;;;;;56.05;30.33;;;4.20;74.30;;;;;;5017361;28;20516;-63
2022/03/09 07:43:14;;;;;;;55.25;30.90;;;4.20;74.20;;;;;;5016224;28;20087;-61
2022/03/09 07:45:40;;;;;;;48.22;30.38;;;4.20;74.20;;;;;;5015105;28;20508;-60
2022/03/09 07:48:05;;;;;;;44.22;29.52;;;4.20;74.20;;;;;;5018584;28;20030;-59
2022/03/09 07:50:31;;;;;;;51.33;31.00;;;4.10;74.10;;;;;;4990675;28;20090;-61
2022/03/09 07:52:56;;;;;;;51.80;30.10;;;4.20;74.20;;;;;;5026162;28;20041;-60
2022/03/09 07:55:22;;;;;;;46.08;30.13;;;4.20;74.20;;;;;;5015090;28;20545;-59
2022/03/09 07:57:47;;;;;;;56.90;31.55;;;4.20;74.20;;;;;;5012464;28;20061;-60
2022/03/09 08:00:13;;;;;;;52.17;30.33;;;4.20;74.20;;;;;;5017132;28;20116;-59
2022/03/09 08:02:40;;;;;;;48.63;30.55;;;4.20;74.20;;;;;;5016026;28;20120;-59
2022/03/09 08:05:05;;;;;;;51.70;30.20;;;4.20;74.20;;;;;;5001264;28;20136;-60
2022/03/09 08:07:31;;;;;;;55.95;30.27;;;4.20;74.20;;;;;;5014849;28;20112;-60
2022/03/09 08:09:57;;;;;;;51.03;29.92;;;4.20;74.20;;;;;;5019068;28;20038;-60
2022/03/09 08:12:23;;;;;;;58.33;29.05;;;4.20;74.30;;;;;;5019732;28;20030;-59
2022/03/09 08:14:48;;;;;;;51.65;29.98;;;4.20;74.30;;;;;;4986353;28;20083;-60
2022/03/09 08:17:14;;;;;;;47.25;30.02;;;4.20;74.30;;;;;;5022225;28;20454;-60
2022/03/09 08:19:39;;;;;;;62.97;30.70;;;4.20;74.30;;;;;;5023000;28;20511;-59
2022/03/09 08:22:05;;;;;;;55.85;29.67;;;4.20;74.40;;;;;;5021190;28;20039;-59
2022/03/09 08:24:32;;;;;;;62.00;30.33;;;4.30;74.40;;;;;;5021675;28;20462;-60
2022/03/09 08:26:58;;;;;;;68.72;31.67;;;4.30;74.40;;;;;;5012562;28;20047;-60
2022/03/09 08:29:23;;;;;;;79.18;31.98;;;4.30;74.30;;;;;;5015213;28;20037;-60
2022/03/09 08:31:49;;;;;;;67.65;31.00;;;4.30;75.10;;;;;;5019208;28;20489;-60
2022/03/09 08:34:14;;;;;;;71.72;32.65;;;4.30;74.50;;;;;;5023516;28;20545;-60
2022/03/09 08:36:40;;;;;;;71.18;32.70;;;4.30;74.50;;;;;;5003253;28;20041;-59
2022/03/09 08:39:05;;;;;;;73.15;32.90;;;4.30;74.50;;;;;;5017235;28;20459;-61
2022/03/09 08:41:31;;;;;;;81.18;34.70;;;4.30;74.50;;;;;;5023320;28;20029;-60
2022/03/09 08:43:56;;;;;;;75.35;32.25;;;4.30;74.70;;;;;;5021954;28;20440;-61
2022/03/09 08:46:22;;;;;;;66.70;31.08;;;4.30;74.70;;;;;;5012581;28;20497;-61
2022/03/09 08:48:48;;;;;;;72.85;32.30;;;4.40;74.80;;;;;;5018513;28;20128;-59
2022/03/09 08:51:13;;;;;;;81.95;33.20;;;4.30;74.70;;;;;;5000778;28;20539;-60
2022/03/09 08:53:40;;;;;;;76.65;31.73;;;4.40;74.70;;;;;;5003276;28;20037;-60
2022/03/09 08:56:10;;;;;;;71.75;32.33;;;4.40;74.90;;;;;;5018396;28;20123;-60
2022/03/09 08:58:35;;;;;;;73.70;31.95;;;4.40;75.10;;;;;;5013297;28;20157;-60
2022/03/09 09:01:01;;;;;;;71.78;33.10;;;4.40;75.60;;;;;;5017770;28;20033;-60
2022/03/09 09:03:26;;;;;;;75.88;33.35;;;4.50;75.00;;;;;;5016744;28;20076;-60
2022/03/09 09:05:52;;;;;;;86.90;31.88;;;4.50;75.30;;;;;;5021382;28;20087;-59
2022/03/09 09:08:18;;;;;;;114.38;35.53;;;4.50;75.50;;;;;;5021070;28;20496;-61
2022/03/09 09:10:44;;;;;;;118.45;35.75;;;4.50;75.80;;;;;;5017431;28;20661;-60
2022/03/09 09:13:10;;;;;;;77.72;33.10;;;4.50;75.90;;;;;;5017192;28;20033;-59
2022/03/09 09:15:37;;;;;;;85.88;34.63;;;4.50;75.80;;;;;;5018615;28;20037;-60
2022/03/09 09:18:04;;;;;;;93.97;34.65;;;4.50;75.90;;;;;;5019263;28;20026;-60
2022/03/09 09:20:30;;;;;;;90.63;34.67;;;4.60;76.10;;;;;;5013630;28;20064;-60
2022/03/09 09:22:55;;;;;;;99.82;32.92;;;4.60;76.10;;;;;;5013166;28;20129;-60
2022/03/09 09:25:21;;;;;;;77.13;34.20;;;4.60;76.10;;;;;;5019290;28;20096;-60
2022/03/09 09:27:47;;;;;;;102.95;35.65;;;4.60;76.10;;;;;;4999514;28;20068;-60
2022/03/09 09:30:12;;;;;;;97.80;33.42;;;4.60;76.10;;;;;;4993435;28;20327;-60
2022/03/09 09:32:38;;;;;;;93.40;35.65;;;4.70;76.10;;;;;;5011658;28;20041;-60
2022/03/09 09:35:05;;;;;;;89.72;34.05;;;4.70;76.00;;;;;;5015698;28;20680;-60
2022/03/09 09:37:31;;;;;;;90.85;33.75;;;4.70;76.00;;;;;;5013067;28;20549;-59
2022/03/09 09:39:56;;;;;;;95.10;34.72;;;4.70;76.30;;;;;;5010889;28;20053;-60
2022/03/09 09:42:30;;;;;;;98.75;34.72;;;4.70;75.90;;;;;;5017210;28;20048;-60
2022/03/09 09:44:56;;;;;;;106.63;35.92;;;4.70;76.00;;;;;;5018020;28;20112;-60
2022/03/09 09:47:23;;;;;;;110.28;37.00;;;4.70;76.20;;;;;;5016877;28;20124;-60
2022/03/09 09:49:49;;;;;;;95.60;35.28;;;4.80;76.20;;;;;;4999495;28;20116;-61
2022/03/09 09:52:15;;;;;;;91.15;33.78;;;4.80;76.10;;;;;;4992955;28;20522;-59
2022/03/09 09:54:40;;;;;;;133.10;35.25;;;4.80;76.30;;;;;;5017391;28;20025;-60
2022/03/09 09:57:06;;;;;;;91.40;34.28;;;4.90;76.30;;;;;;5017782;28;20037;-60
2022/03/09 09:59:32;;;;;;;104.25;34.33;;;4.90;76.30;;;;;;5017505;28;20037;-60
2022/03/09 10:01:58;;;;;;;140.57;39.05;;;4.90;76.30;;;;;;5013645;28;20267;-60
2022/03/09 10:04:24;;;;;;;111.07;36.00;;;5.00;76.10;;;;;;4993932;28;20041;-59
2022/03/09 10:06:49;;;;;;;111.35;33.80;;;5.00;76.10;;;;;;5007909;28;20076;-60
2022/03/09 10:09:15;;;;;;;90.72;34.38;;;5.00;75.90;;;;;;5012589;28;20029;-60
2022/03/09 10:11:48;;;;;;;82.13;33.05;;;5.00;75.80;;;;;;5015930;28;20033;-61
2022/03/09 10:14:14;;;;;;;82.82;32.92;;;5.10;75.70;;;;;;5015776;28;20050;-60
2022/03/09 10:16:59;;;;;;;112.60;34.47;;;5.10;75.50;;;;;;5016886;28;20120;-60
2022/03/09 10:19:35;;;;;;;120.03;36.03;;;5.10;75.70;;;;;;5012912;28;20554;-60
2022/03/09 10:22:33;;;;;;;130.30;36.88;;;5.20;76.00;;;;;;5009962;28;20052;-61
2022/03/09 10:25:11;;;;;;;113.60;36.00;;;5.20;76.00;;;;;;5011313;28;20136;-60
2022/03/09 10:27:38;;;;;;;151.35;35.45;;;5.20;75.80;;;;;;5013292;28;20516;-61
2022/03/09 10:30:07;;;;;;;108.95;36.25;;;5.30;75.90;;;;;;5024211;28;20037;-61
2022/03/09 10:32:53;;;;;;;114.85;35.33;;;5.30;75.80;;;;;;4979429;28;20029;-60
2022/03/09 10:35:30;;;;;;;;;;;5.40;75.60;;;;;;5011289;28;20529;-60
2022/03/09 10:38:02;;;;;;;97.18;32.75;;;5.40;75.70;;;;;;5008443;28;20357;-60
2022/03/09 10:40:29;;;;;;;101.82;34.33;;;5.40;75.50;;;;;;4994025;28;20291;-60
2022/03/09 10:43:14;;;;;;;88.85;33.72;;;5.40;75.50;;;;;;5005926;28;20427;-60
2022/03/09 10:46:03;;;;;;;95.97;33.08;;;5.50;75.70;;;;;;5010244;28;20649;-60
2022/03/09 10:48:52;;;;;;;99.95;32.50;;;5.50;76.00;;;;;;5006245;28;20033;-60
2022/03/09 10:51:47;;;;;;;129.02;34.50;;;5.60;75.50;;;;;;5008199;28;20033;-60
2022/03/09 10:54:24;;;;;;;125.40;32.85;;;5.50;75.50;;;;;;5010920;28;20038;-60
2022/03/09 10:56:50;;;;;;;97.05;33.97;;;5.60;75.60;;;;;;4992079;28;20036;-60
2022/03/09 10:59:19;;;;;;;107.70;34.40;;;5.60;75.50;;;;;;5013674;28;20033;-60
2022/03/09 11:02:02;;;;;;;155.77;38.88;;;5.70;75.70;;;;;;5012873;28;20065;-61
2022/03/09 11:04:28;;;;;;;116.07;35.83;;;5.70;75.70;;;;;;4993802;28;20184;-59
2022/03/09 11:06:55;;;;;;;131.85;36.38;;;5.70;76.00;;;;;;5011400;28;20117;-59
2022/03/09 11:09:20;;;;;;;193.18;40.83;;;5.80;75.90;;;;;;5007527;28;20033;-61
2022/03/09 11:11:48;;;;;;;162.63;40.05;;;5.90;76.00;;;;;;4993620;28;20048;-60
2022/03/09 11:14:14;;;;;;;134.35;36.65;;;5.90;76.00;;;;;;5009964;28;20029;-60
2022/03/09 11:16:41;;;;;;;125.05;34.50;;;6.00;76.00;;;;;;5010526;28;20029;-60
2022/03/09 11:19:07;;;;;;;151.55;38.75;;;6.00;75.60;;;;;;5006783;28;20041;-60
2022/03/09 11:21:34;;;;;;;178.27;39.72;;;6.00;75.60;;;;;;5008153;28;20102;-60
2022/03/09 11:23:59;;;;;;;170.15;37.90;;;6.10;75.80;;;;;;5006962;28;20456;-60
2022/03/09 11:26:27;;;;;;;183.70;40.58;;;6.20;76.50;;;;;;5000203;28;20524;-60
2022/03/09 11:29:12;;;;;;;177.43;41.20;;;6.20;75.90;;;;;;4991520;28;20037;-61
2022/03/09 11:31:53;;;;;;;169.85;40.08;;;6.30;75.80;;;;;;5008630;28;20046;-60
2022/03/09 11:34:36;;;;;;;151.82;38.50;;;6.30;75.70;;;;;;5010396;28;20046;-60
2022/03/09 11:37:08;;;;;;;206.40;42.03;;;6.40;75.70;;;;;;5010259;28;20046;-60
2022/03/09 11:39:35;;;;;;;181.60;42.67;;;6.40;75.70;;;;;;5007318;28;20037;-59
2022/03/09 11:42:19;;;;;;;204.95;40.83;;;6.50;75.60;;;;;;5000312;28;20203;-61
2022/03/09 11:44:45;;;;;;;263.23;46.40;;;6.50;75.50;;;;;;5012401;28;20033;-60
2022/03/09 11:47:11;;;;;;;271.88;47.30;;;6.60;75.50;;;;;;5014636;28;20045;-61
2022/03/09 11:49:36;;;;;;;230.63;44.90;;;6.60;75.50;;;;;;5000476;28;20584;-61
2022/03/09 11:52:12;;;;;;;228.57;47.53;;;6.70;75.40;;;;;;5018100;28;20528;-60
2022/03/09 11:54:45;;;;;;;248.43;49.25;;;6.70;75.20;;;;;;5018952;28;20037;-61
2022/03/09 11:57:13;;;;;;;197.07;42.25;;;6.80;75.00;;;;;;4995676;28;20497;-60
2022/03/09 11:59:38;;;;;;;159.88;41.17;;;6.80;74.50;;;;;;4987841;28;20044;-60
2022/03/09 12:02:11;;;;;;;174.15;39.58;;;6.90;74.50;;;;;;5008735;28;21016;-60
2022/03/09 12:04:40;;;;;;;148.70;37.58;;;6.90;74.50;;;;;;4991675;28;20424;-61
2022/03/09 12:07:06;;;;;;;183.82;39.67;;;6.90;74.40;;;;;;5014585;28;20029;-60
2022/03/09 12:09:59;;;;;;;172.90;38.83;;;7.00;74.10;;;;;;5005079;28;20043;-60
2022/03/09 12:12:26;;;;;;;183.73;38.00;;;7.10;74.00;;;;;;5008590;28;20041;-61
2022/03/09 12:15:01;;;;;;;184.25;41.15;;;7.10;74.00;;;;;;4989834;28;20577;-60
2022/03/09 12:17:37;;;;;;;151.20;39.85;;;7.20;74.10;;;;;;5011644;28;20037;-61
2022/03/09 12:20:23;;;;;;;163.27;39.00;;;7.20;73.90;;;;;;4993610;28;20370;-61
2022/03/09 12:23:14;;;;;;;165.23;41.22;;;7.30;73.80;;;;;;5013280;28;20416;-60
2022/03/09 12:25:40;;;;;;;145.43;39.08;;;7.30;73.50;;;;;;5010465;28;20029;-61
2022/03/09 12:28:24;;;;;;;156.27;37.30;;;7.40;73.20;;;;;;5023933;28;20060;-61
2022/03/09 12:30:56;;;;;;;139.85;37.00;;;7.50;73.10;;;;;;5024408;28;20140;-61
2022/03/09 12:33:29;;;;;;;162.07;38.97;;;7.50;72.90;;;;;;5013825;28;20094;-61
2022/03/09 12:36:05;;;;;;;144.27;39.50;;;7.60;73.20;;;;;;5011088;28;20034;-59
2022/03/09 12:38:37;;;;;;;175.27;38.95;;;7.70;72.70;;;;;;4997167;28;20029;-60